THY1375 LTFM-LICJ
Flight info
| Callsign | THY1375 |
|---|---|
| Flight time | 2h 44m |
| Altitude | 32000 |
| Route | BARPE4D BARPE UM603 SUTIS DCT LATAN/N0454F330 DCT VAKOR/N0373F180 Q152 ROSAS ROSAS3M |
| Aircraft | B738/M-SDFGHIRWXYZ/3521 |
Departure
| Time | 2026-02-18 10:05 |
|---|---|
| Airport | İstanbul Airport (LTFM) |
Arrival
| Time | 2026-02-18 12:49 |
|---|---|
| Airport | Falcone–Borsellino Airport (LICJ) |
| Time | Latitude | Longitude | Altitude | Speed | Heading |
|---|---|---|---|---|---|
| 2026-02-18 09:53 | 41.26775 | 28.73615 | 333 ft | 0 kts | 179° |
| 2026-02-18 09:54 | 41.26784 | 28.73615 | 333 ft | 2 kts | 174° |
| 2026-02-18 09:55 | 41.26800 | 28.73613 | 328 ft | 2 kts | 169° |
| 2026-02-18 09:55 | 41.26816 | 28.73608 | 330 ft | 2 kts | 160° |
| 2026-02-18 09:55 | 41.26832 | 28.73601 | 329 ft | 2 kts | 198° |
| 2026-02-18 09:55 | 41.26848 | 28.73606 | 331 ft | 2 kts | 207° |
| 2026-02-18 09:56 | 41.26862 | 28.73617 | 329 ft | 2 kts | 234° |
| 2026-02-18 09:56 | 41.26870 | 28.73636 | 329 ft | 2 kts | 240° |
| 2026-02-18 09:56 | 41.26875 | 28.73657 | 329 ft | 2 kts | 276° |
| 2026-02-18 09:56 | 41.26874 | 28.73674 | 329 ft | 1 kts | 271° |
| 2026-02-18 09:57 | 41.26874 | 28.73675 | 329 ft | 0 kts | 271° |
| 2026-02-18 09:59 | 41.26874 | 28.73668 | 328 ft | 3 kts | 269° |
| 2026-02-18 09:59 | 41.26873 | 28.73616 | 331 ft | 7 kts | 269° |
| 2026-02-18 09:59 | 41.26872 | 28.73539 | 329 ft | 9 kts | 269° |
| 2026-02-18 09:59 | 41.26871 | 28.73445 | 330 ft | 11 kts | 268° |
| 2026-02-18 10:00 | 41.26869 | 28.73339 | 333 ft | 12 kts | 269° |
| 2026-02-18 10:00 | 41.26867 | 28.73246 | 331 ft | 10 kts | 269° |
| 2026-02-18 10:00 | 41.26866 | 28.73149 | 330 ft | 11 kts | 269° |
| 2026-02-18 10:00 | 41.26865 | 28.73047 | 333 ft | 10 kts | 267° |
| 2026-02-18 10:01 | 41.26809 | 28.72991 | 330 ft | 13 kts | 182° |
| 2026-02-18 10:01 | 41.26576 | 28.72996 | 333 ft | 21 kts | 179° |
| 2026-02-18 10:01 | 41.26422 | 28.72999 | 330 ft | 23 kts | 179° |
| 2026-02-18 10:02 | 41.26273 | 28.73003 | 329 ft | 19 kts | 179° |
| 2026-02-18 10:02 | 41.26218 | 28.72962 | 330 ft | 0 kts | 253° |
| 2026-02-18 10:03 | 41.26217 | 28.72956 | 333 ft | 3 kts | 257° |
| 2026-02-18 10:03 | 41.26214 | 28.72901 | 333 ft | 10 kts | 268° |
| 2026-02-18 10:04 | 41.26238 | 28.72784 | 332 ft | 17 kts | 329° |
| 2026-02-18 10:04 | 41.26402 | 28.72771 | 329 ft | 46 kts | 359° |
| 2026-02-18 10:04 | 41.27007 | 28.72757 | 332 ft | 125 kts | 359° |
| 2026-02-18 10:04 | 41.28095 | 28.72746 | 508 ft | 178 kts | 0° |
| 2026-02-18 10:05 | 41.29377 | 28.72815 | 1340 ft | 189 kts | 358° |
| 2026-02-18 10:05 | 41.31999 | 28.72900 | 3213 ft | 201 kts | 355° |
| 2026-02-18 10:05 | 41.33477 | 28.72800 | 3764 ft | 219 kts | 354° |
| 2026-02-18 10:06 | 41.35027 | 28.72675 | 4400 ft | 226 kts | 347° |
| 2026-02-18 10:06 | 41.36460 | 28.71920 | 4872 ft | 225 kts | 324° |
| 2026-02-18 10:06 | 41.37564 | 28.70446 | 5316 ft | 229 kts | 302° |
| 2026-02-18 10:06 | 41.38151 | 28.68433 | 5705 ft | 240 kts | 277° |
| 2026-02-18 10:07 | 41.38229 | 28.66208 | 6418 ft | 244 kts | 270° |
| 2026-02-18 10:07 | 41.38198 | 28.63917 | 7090 ft | 249 kts | 269° |
| 2026-02-18 10:07 | 41.38161 | 28.61609 | 7885 ft | 251 kts | 269° |
| 2026-02-18 10:07 | 41.38004 | 28.59269 | 8535 ft | 257 kts | 254° |
| 2026-02-18 10:08 | 41.37176 | 28.57203 | 9326 ft | 260 kts | 233° |
| 2026-02-18 10:08 | 41.35740 | 28.55685 | 10004 ft | 270 kts | 211° |
| 2026-02-18 10:08 | 41.33878 | 28.55013 | 10408 ft | 293 kts | 189° |
| 2026-02-18 10:08 | 41.31757 | 28.55028 | 10616 ft | 316 kts | 184° |
| 2026-02-18 10:09 | 41.29487 | 28.55116 | 10780 ft | 336 kts | 183° |
| 2026-02-18 10:09 | 41.24572 | 28.55096 | 11285 ft | 363 kts | 194° |
| 2026-02-18 10:09 | 41.22184 | 28.54061 | 11932 ft | 361 kts | 205° |
| 2026-02-18 10:10 | 41.19846 | 28.52832 | 12606 ft | 364 kts | 205° |
| 2026-02-18 10:10 | 41.17475 | 28.51597 | 13233 ft | 368 kts | 204° |
| 2026-02-18 10:10 | 41.15069 | 28.50370 | 13859 ft | 371 kts | 204° |
| 2026-02-18 10:10 | 41.12639 | 28.49151 | 14431 ft | 375 kts | 204° |
| 2026-02-18 10:11 | 41.10182 | 28.47929 | 14965 ft | 378 kts | 204° |
| 2026-02-18 10:11 | 41.07742 | 28.46717 | 15525 ft | 381 kts | 204° |
| 2026-02-18 10:11 | 41.05225 | 28.45550 | 16056 ft | 386 kts | 199° |
| 2026-02-18 10:11 | 41.02605 | 28.44689 | 16626 ft | 390 kts | 195° |
| 2026-02-18 10:12 | 40.99929 | 28.43943 | 17176 ft | 393 kts | 195° |
| 2026-02-18 10:12 | 40.97236 | 28.43174 | 17693 ft | 397 kts | 196° |
| 2026-02-18 10:12 | 40.94530 | 28.42354 | 18173 ft | 400 kts | 196° |
| 2026-02-18 10:12 | 40.91827 | 28.41443 | 18627 ft | 401 kts | 203° |
| 2026-02-18 10:13 | 40.89415 | 28.39664 | 19049 ft | 399 kts | 222° |
| 2026-02-18 10:13 | 40.86295 | 28.33714 | 19896 ft | 400 kts | 253° |
| 2026-02-18 10:13 | 40.85670 | 28.30114 | 20359 ft | 402 kts | 260° |
| 2026-02-18 10:14 | 40.85181 | 28.26470 | 20798 ft | 404 kts | 261° |
| 2026-02-18 10:14 | 40.84691 | 28.22858 | 21220 ft | 407 kts | 260° |
| 2026-02-18 10:14 | 40.84159 | 28.19170 | 21656 ft | 409 kts | 259° |
| 2026-02-18 10:14 | 40.83607 | 28.15481 | 22091 ft | 411 kts | 259° |
| 2026-02-18 10:15 | 40.83229 | 28.12977 | 22377 ft | 412 kts | 259° |
| 2026-02-18 10:15 | 40.82701 | 28.09489 | 22746 ft | 415 kts | 259° |
| 2026-02-18 10:15 | 40.82134 | 28.05748 | 23151 ft | 417 kts | 259° |
| 2026-02-18 10:15 | 40.81561 | 28.01983 | 23486 ft | 419 kts | 259° |
| 2026-02-18 10:16 | 40.80983 | 27.98203 | 23828 ft | 420 kts | 259° |
| 2026-02-18 10:16 | 40.80403 | 27.94414 | 24131 ft | 423 kts | 259° |
| 2026-02-18 10:16 | 40.79818 | 27.90580 | 24395 ft | 426 kts | 259° |
| 2026-02-18 10:16 | 40.79333 | 27.86729 | 24736 ft | 427 kts | 266° |
| 2026-02-18 10:17 | 40.79365 | 27.82809 | 25000 ft | 430 kts | 272° |
| 2026-02-18 10:17 | 40.79574 | 27.74883 | 25698 ft | 433 kts | 271° |
| 2026-02-18 10:17 | 40.79615 | 27.70894 | 26002 ft | 436 kts | 270° |
| 2026-02-18 10:18 | 40.79645 | 27.66882 | 26258 ft | 439 kts | 271° |
| 2026-02-18 10:18 | 40.79678 | 27.62856 | 26707 ft | 436 kts | 270° |
| 2026-02-18 10:18 | 40.79880 | 27.58876 | 27183 ft | 434 kts | 282° |
| 2026-02-18 10:18 | 40.80701 | 27.55053 | 27590 ft | 433 kts | 286° |
| 2026-02-18 10:19 | 40.81564 | 27.51236 | 27953 ft | 433 kts | 285° |
| 2026-02-18 10:19 | 40.82395 | 27.47433 | 28347 ft | 431 kts | 285° |
| 2026-02-18 10:19 | 40.83208 | 27.43617 | 28788 ft | 429 kts | 285° |
| 2026-02-18 10:19 | 40.84003 | 27.39828 | 29188 ft | 428 kts | 285° |
| 2026-02-18 10:20 | 40.84780 | 27.36092 | 29585 ft | 426 kts | 285° |
| 2026-02-18 10:20 | 40.85561 | 27.32318 | 29925 ft | 426 kts | 285° |
| 2026-02-18 10:20 | 40.86342 | 27.28540 | 30185 ft | 426 kts | 285° |
| 2026-02-18 10:20 | 40.87122 | 27.24755 | 30418 ft | 427 kts | 285° |
| 2026-02-18 10:21 | 40.87902 | 27.20955 | 30662 ft | 428 kts | 285° |
| 2026-02-18 10:21 | 40.89458 | 27.13346 | 31176 ft | 428 kts | 285° |
| 2026-02-18 10:21 | 40.90229 | 27.09554 | 31495 ft | 426 kts | 285° |
| 2026-02-18 10:22 | 40.90998 | 27.05773 | 31757 ft | 426 kts | 285° |
| 2026-02-18 10:22 | 40.92480 | 26.98189 | 31728 ft | 429 kts | 278° |
| 2026-02-18 10:22 | 40.92543 | 26.94270 | 31782 ft | 424 kts | 267° |
| 2026-02-18 10:23 | 40.92321 | 26.90377 | 31756 ft | 425 kts | 266° |
| 2026-02-18 10:23 | 40.91817 | 26.82603 | 31751 ft | 424 kts | 266° |
| 2026-02-18 10:24 | 40.91328 | 26.74834 | 31759 ft | 423 kts | 266° |
| 2026-02-18 10:24 | 40.90856 | 26.67075 | 31759 ft | 423 kts | 266° |
| 2026-02-18 10:25 | 40.90388 | 26.59329 | 31762 ft | 423 kts | 266° |
| 2026-02-18 10:25 | 40.89675 | 26.47742 | 31767 ft | 423 kts | 266° |
| 2026-02-18 10:26 | 40.89187 | 26.39987 | 31769 ft | 424 kts | 266° |
| 2026-02-18 10:26 | 40.88687 | 26.32204 | 31775 ft | 424 kts | 266° |
| 2026-02-18 10:27 | 40.88193 | 26.24423 | 31764 ft | 425 kts | 266° |
| 2026-02-18 10:27 | 40.87508 | 26.16723 | 31772 ft | 424 kts | 264° |
| 2026-02-18 10:28 | 40.86726 | 26.08977 | 31772 ft | 425 kts | 264° |
| 2026-02-18 10:28 | 40.85961 | 26.01253 | 31781 ft | 424 kts | 264° |
| 2026-02-18 10:29 | 40.84762 | 25.89678 | 31784 ft | 426 kts | 262° |
| 2026-02-18 10:30 | 40.83815 | 25.81889 | 31781 ft | 433 kts | 262° |
| 2026-02-18 10:30 | 40.82845 | 25.74028 | 31787 ft | 439 kts | 262° |
| 2026-02-18 10:31 | 40.81863 | 25.66048 | 31775 ft | 441 kts | 262° |
| 2026-02-18 10:31 | 40.80880 | 25.58058 | 31774 ft | 441 kts | 262° |
| 2026-02-18 10:32 | 40.79886 | 25.50071 | 31773 ft | 440 kts | 262° |
| 2026-02-18 10:32 | 40.78900 | 25.42101 | 31763 ft | 439 kts | 262° |
| 2026-02-18 10:33 | 40.78025 | 25.35125 | 31773 ft | 439 kts | 262° |
| 2026-02-18 10:33 | 40.76504 | 25.23275 | 31776 ft | 437 kts | 261° |
| 2026-02-18 10:34 | 40.75473 | 25.15373 | 31780 ft | 436 kts | 262° |
| 2026-02-18 10:34 | 40.74446 | 25.07468 | 31778 ft | 436 kts | 261° |
| 2026-02-18 10:35 | 40.73440 | 24.99593 | 31769 ft | 436 kts | 262° |
| 2026-02-18 10:35 | 40.72427 | 24.91720 | 31768 ft | 435 kts | 261° |
| 2026-02-18 10:36 | 40.71396 | 24.83863 | 31766 ft | 435 kts | 262° |
| 2026-02-18 10:36 | 40.71221 | 24.82535 | 31769 ft | 435 kts | 261° |
| 2026-02-18 10:37 | 40.68086 | 24.64471 | 31771 ft | 435 kts | 255° |
| 2026-02-18 10:38 | 40.66386 | 24.56817 | 31766 ft | 435 kts | 256° |
| 2026-02-18 10:38 | 40.64705 | 24.49212 | 31781 ft | 435 kts | 256° |
| 2026-02-18 10:39 | 40.63027 | 24.41558 | 31781 ft | 435 kts | 255° |
| 2026-02-18 10:39 | 40.61560 | 24.34874 | 31791 ft | 434 kts | 256° |
| 2026-02-18 10:40 | 40.59879 | 24.27244 | 31783 ft | 434 kts | 256° |
| 2026-02-18 10:40 | 40.58196 | 24.19612 | 31800 ft | 434 kts | 255° |
| 2026-02-18 10:41 | 40.56506 | 24.11988 | 31798 ft | 434 kts | 255° |
| 2026-02-18 10:41 | 40.53966 | 24.00579 | 31796 ft | 433 kts | 255° |
| 2026-02-18 10:42 | 40.52273 | 23.93014 | 31797 ft | 433 kts | 255° |
| 2026-02-18 10:42 | 40.50573 | 23.85418 | 31817 ft | 433 kts | 255° |
| 2026-02-18 10:43 | 40.48863 | 23.77825 | 31810 ft | 433 kts | 255° |
| 2026-02-18 10:43 | 40.47146 | 23.70226 | 31811 ft | 433 kts | 255° |
| 2026-02-18 10:44 | 40.45430 | 23.62654 | 31823 ft | 433 kts | 255° |
| 2026-02-18 10:44 | 40.43705 | 23.55066 | 31834 ft | 433 kts | 254° |
| 2026-02-18 10:45 | 40.41406 | 23.44986 | 31834 ft | 433 kts | 254° |
| 2026-02-18 10:46 | 40.39390 | 23.36181 | 31845 ft | 434 kts | 254° |
| 2026-02-18 10:46 | 40.37647 | 23.28596 | 31860 ft | 434 kts | 253° |
| 2026-02-18 10:47 | 40.36192 | 23.22303 | 31866 ft | 434 kts | 254° |
| 2026-02-18 10:47 | 40.34441 | 23.14730 | 31889 ft | 434 kts | 253° |
| 2026-02-18 10:48 | 40.32678 | 23.07142 | 31860 ft | 435 kts | 254° |
| 2026-02-18 10:48 | 40.30911 | 22.99557 | 31891 ft | 435 kts | 254° |
| 2026-02-18 10:49 | 40.29136 | 22.91967 | 31873 ft | 436 kts | 254° |
| 2026-02-18 10:49 | 40.26476 | 22.80640 | 31884 ft | 436 kts | 254° |
| 2026-02-18 10:50 | 40.24688 | 22.73052 | 31877 ft | 437 kts | 253° |
| 2026-02-18 10:50 | 40.22890 | 22.65448 | 31883 ft | 437 kts | 253° |
| 2026-02-18 10:51 | 40.21089 | 22.57855 | 31886 ft | 437 kts | 253° |
| 2026-02-18 10:51 | 40.19275 | 22.50234 | 31894 ft | 438 kts | 253° |
| 2026-02-18 10:52 | 40.17457 | 22.42628 | 31894 ft | 438 kts | 254° |
| 2026-02-18 10:52 | 40.15643 | 22.35064 | 31903 ft | 438 kts | 253° |
| 2026-02-18 10:53 | 40.12896 | 22.23643 | 31906 ft | 438 kts | 253° |
| 2026-02-18 10:54 | 40.11064 | 22.16063 | 31916 ft | 437 kts | 254° |
| 2026-02-18 10:54 | 40.09239 | 22.08532 | 31902 ft | 437 kts | 253° |
| 2026-02-18 10:55 | 40.07397 | 22.00957 | 31922 ft | 436 kts | 254° |
| 2026-02-18 10:55 | 40.05557 | 21.93415 | 31911 ft | 436 kts | 253° |
| 2026-02-18 10:56 | 40.03711 | 21.85862 | 31910 ft | 436 kts | 254° |
| 2026-02-18 10:56 | 40.01861 | 21.78327 | 31923 ft | 436 kts | 253° |
| 2026-02-18 10:57 | 40.00019 | 21.70841 | 31921 ft | 436 kts | 254° |
| 2026-02-18 10:57 | 39.97222 | 21.59522 | 31927 ft | 437 kts | 253° |
| 2026-02-18 10:58 | 39.95585 | 21.52939 | 31926 ft | 437 kts | 253° |
| 2026-02-18 10:58 | 39.93708 | 21.45395 | 31951 ft | 438 kts | 253° |
| 2026-02-18 10:59 | 39.91822 | 21.37842 | 31952 ft | 438 kts | 253° |
| 2026-02-18 10:59 | 39.89931 | 21.30289 | 31953 ft | 439 kts | 253° |
| 2026-02-18 11:00 | 39.88032 | 21.22734 | 31950 ft | 439 kts | 253° |
| 2026-02-18 11:00 | 39.86127 | 21.15181 | 31944 ft | 440 kts | 253° |
| 2026-02-18 11:01 | 39.83256 | 21.03833 | 31980 ft | 440 kts | 253° |
| 2026-02-18 11:02 | 39.81350 | 20.96325 | 31969 ft | 440 kts | 253° |
| 2026-02-18 11:02 | 39.79425 | 20.88772 | 31979 ft | 440 kts | 253° |
| 2026-02-18 11:03 | 39.77496 | 20.81229 | 31972 ft | 440 kts | 252° |
| 2026-02-18 11:03 | 39.75559 | 20.73681 | 31972 ft | 440 kts | 253° |
| 2026-02-18 11:04 | 39.73617 | 20.66131 | 31962 ft | 439 kts | 252° |
| 2026-02-18 11:04 | 39.71917 | 20.59529 | 31964 ft | 439 kts | 253° |
| 2026-02-18 11:05 | 39.69974 | 20.52020 | 31957 ft | 438 kts | 252° |
| 2026-02-18 11:05 | 39.67048 | 20.40762 | 31954 ft | 438 kts | 253° |
| 2026-02-18 11:06 | 39.65073 | 20.33246 | 31976 ft | 437 kts | 252° |
| 2026-02-18 11:06 | 39.63116 | 20.25766 | 31966 ft | 439 kts | 253° |
| 2026-02-18 11:07 | 39.61163 | 20.18314 | 31949 ft | 439 kts | 252° |
| 2026-02-18 11:07 | 39.59190 | 20.10815 | 31970 ft | 439 kts | 253° |
| 2026-02-18 11:08 | 39.57217 | 20.03337 | 31995 ft | 439 kts | 253° |
| 2026-02-18 11:08 | 39.55234 | 19.95846 | 31980 ft | 440 kts | 253° |
| 2026-02-18 11:09 | 39.52245 | 19.84593 | 32020 ft | 442 kts | 253° |
| 2026-02-18 11:09 | 39.51239 | 19.80820 | 32209 ft | 441 kts | 253° |
| 2026-02-18 11:10 | 39.50254 | 19.77129 | 32457 ft | 439 kts | 253° |
| 2026-02-18 11:10 | 39.49254 | 19.73387 | 32687 ft | 439 kts | 254° |
| 2026-02-18 11:10 | 39.48256 | 19.69654 | 32828 ft | 439 kts | 254° |
| 2026-02-18 11:11 | 39.46523 | 19.63184 | 33090 ft | 440 kts | 254° |
| 2026-02-18 11:11 | 39.45520 | 19.59456 | 33298 ft | 438 kts | 254° |
| 2026-02-18 11:11 | 39.44521 | 19.55744 | 33511 ft | 437 kts | 255° |
| 2026-02-18 11:11 | 39.43519 | 19.52022 | 33686 ft | 437 kts | 255° |
| 2026-02-18 11:12 | 39.42516 | 19.48302 | 33829 ft | 438 kts | 254° |
| 2026-02-18 11:12 | 39.41512 | 19.44586 | 33988 ft | 437 kts | 255° |
| 2026-02-18 11:12 | 39.40509 | 19.40880 | 34151 ft | 436 kts | 254° |
| 2026-02-18 11:12 | 39.39503 | 19.37178 | 34275 ft | 437 kts | 255° |
| 2026-02-18 11:13 | 39.38495 | 19.33475 | 34379 ft | 437 kts | 255° |
| 2026-02-18 11:13 | 39.36488 | 19.26105 | 34643 ft | 436 kts | 255° |
| 2026-02-18 11:13 | 39.35478 | 19.22405 | 34756 ft | 437 kts | 255° |
| 2026-02-18 11:14 | 39.34465 | 19.18706 | 34868 ft | 437 kts | 255° |
| 2026-02-18 11:14 | 39.33449 | 19.15006 | 34986 ft | 437 kts | 255° |
| 2026-02-18 11:14 | 39.32431 | 19.11309 | 35105 ft | 437 kts | 255° |
| 2026-02-18 11:14 | 39.31412 | 19.07607 | 35238 ft | 436 kts | 256° |
| 2026-02-18 11:15 | 39.29487 | 19.00170 | 35439 ft | 434 kts | 261° |
| 2026-02-18 11:15 | 39.28960 | 18.96360 | 35557 ft | 430 kts | 268° |
| 2026-02-18 11:15 | 39.28695 | 18.92520 | 35644 ft | 430 kts | 269° |
| 2026-02-18 11:16 | 39.28194 | 18.84839 | 35978 ft | 426 kts | 269° |
| 2026-02-18 11:16 | 39.27666 | 18.77210 | 36053 ft | 427 kts | 269° |
| 2026-02-18 11:17 | 39.26889 | 18.66749 | 36045 ft | 430 kts | 269° |
| 2026-02-18 11:18 | 39.26309 | 18.59204 | 36033 ft | 415 kts | 269° |
| 2026-02-18 11:18 | 39.25747 | 18.51934 | 36048 ft | 403 kts | 269° |
| 2026-02-18 11:19 | 39.25195 | 18.44760 | 36059 ft | 401 kts | 269° |
| 2026-02-18 11:19 | 39.24638 | 18.37606 | 36058 ft | 400 kts | 269° |
| 2026-02-18 11:20 | 39.24077 | 18.30476 | 36061 ft | 399 kts | 269° |
| 2026-02-18 11:20 | 39.23511 | 18.23349 | 36066 ft | 399 kts | 269° |
| 2026-02-18 11:21 | 39.22944 | 18.16256 | 36070 ft | 400 kts | 270° |
| 2026-02-18 11:21 | 39.22079 | 18.05552 | 36083 ft | 402 kts | 269° |
| 2026-02-18 11:22 | 39.21494 | 17.98380 | 36088 ft | 403 kts | 270° |
| 2026-02-18 11:22 | 39.20902 | 17.91186 | 36090 ft | 403 kts | 270° |
| 2026-02-18 11:23 | 39.20304 | 17.83974 | 36097 ft | 404 kts | 270° |
| 2026-02-18 11:23 | 39.19702 | 17.76766 | 35996 ft | 405 kts | 270° |
| 2026-02-18 11:24 | 39.19400 | 17.73204 | 36059 ft | 392 kts | 270° |
| 2026-02-18 11:24 | 39.19109 | 17.69826 | 36063 ft | 376 kts | 270° |
| 2026-02-18 11:24 | 39.18825 | 17.66536 | 36074 ft | 364 kts | 271° |
| 2026-02-18 11:24 | 39.18552 | 17.63307 | 36084 ft | 362 kts | 271° |
| 2026-02-18 11:25 | 39.17731 | 17.53575 | 36107 ft | 367 kts | 271° |
| 2026-02-18 11:26 | 39.17169 | 17.46972 | 36090 ft | 374 kts | 271° |
| 2026-02-18 11:26 | 39.16587 | 17.40235 | 36084 ft | 381 kts | 271° |
| 2026-02-18 11:27 | 39.15989 | 17.33380 | 36093 ft | 388 kts | 271° |
| 2026-02-18 11:27 | 39.15376 | 17.26411 | 36083 ft | 394 kts | 271° |
| 2026-02-18 11:28 | 39.14753 | 17.19392 | 36080 ft | 399 kts | 271° |
| 2026-02-18 11:28 | 39.14115 | 17.12271 | 36068 ft | 401 kts | 270° |
| 2026-02-18 11:29 | 39.13471 | 17.05117 | 36080 ft | 402 kts | 270° |
| 2026-02-18 11:29 | 39.12497 | 16.94402 | 36076 ft | 401 kts | 271° |
| 2026-02-18 11:30 | 39.11955 | 16.88466 | 36074 ft | 399 kts | 271° |
| 2026-02-18 11:30 | 39.11276 | 16.81076 | 36054 ft | 396 kts | 271° |
| 2026-02-18 11:31 | 39.10626 | 16.74055 | 36063 ft | 393 kts | 271° |
| 2026-02-18 11:31 | 39.09981 | 16.67125 | 36055 ft | 391 kts | 271° |
| 2026-02-18 11:32 | 39.09332 | 16.60195 | 36057 ft | 389 kts | 272° |
| 2026-02-18 11:32 | 39.08680 | 16.53287 | 36066 ft | 388 kts | 272° |
| 2026-02-18 11:33 | 39.07698 | 16.42945 | 36095 ft | 388 kts | 272° |
| 2026-02-18 11:34 | 39.07038 | 16.36042 | 36093 ft | 389 kts | 272° |
| 2026-02-18 11:34 | 39.06484 | 16.30298 | 36096 ft | 389 kts | 272° |
| 2026-02-18 11:35 | 39.05813 | 16.23377 | 36088 ft | 391 kts | 272° |
| 2026-02-18 11:35 | 39.05135 | 16.16431 | 36101 ft | 391 kts | 272° |
| 2026-02-18 11:36 | 39.04451 | 16.09483 | 36091 ft | 391 kts | 272° |
| 2026-02-18 11:36 | 39.03764 | 16.02557 | 36091 ft | 389 kts | 272° |
| 2026-02-18 11:37 | 39.03079 | 15.95686 | 36088 ft | 386 kts | 273° |
| 2026-02-18 11:37 | 39.02055 | 15.85475 | 36091 ft | 381 kts | 273° |
| 2026-02-18 11:38 | 39.01374 | 15.78731 | 36095 ft | 378 kts | 273° |
| 2026-02-18 11:38 | 39.00700 | 15.72092 | 36094 ft | 376 kts | 274° |
| 2026-02-18 11:39 | 39.00021 | 15.65442 | 36098 ft | 374 kts | 274° |
| 2026-02-18 11:39 | 38.99342 | 15.58828 | 36108 ft | 372 kts | 274° |
| 2026-02-18 11:40 | 38.98663 | 15.52247 | 36108 ft | 371 kts | 274° |
| 2026-02-18 11:40 | 38.97982 | 15.45681 | 36109 ft | 370 kts | 274° |
| 2026-02-18 11:41 | 38.96954 | 15.35814 | 35232 ft | 375 kts | 275° |
| 2026-02-18 11:41 | 38.96602 | 15.32502 | 34723 ft | 373 kts | 275° |
| 2026-02-18 11:42 | 38.96250 | 15.29199 | 34135 ft | 373 kts | 275° |
| 2026-02-18 11:42 | 38.95897 | 15.25897 | 33456 ft | 373 kts | 275° |
| 2026-02-18 11:42 | 38.95544 | 15.22601 | 32829 ft | 372 kts | 275° |
| 2026-02-18 11:42 | 38.95192 | 15.19328 | 32365 ft | 367 kts | 275° |
| 2026-02-18 11:43 | 38.94843 | 15.16100 | 31909 ft | 362 kts | 275° |
| 2026-02-18 11:43 | 38.94500 | 15.12917 | 31495 ft | 357 kts | 276° |
| 2026-02-18 11:43 | 38.94162 | 15.09770 | 31074 ft | 352 kts | 276° |
| 2026-02-18 11:43 | 38.93828 | 15.06670 | 30663 ft | 348 kts | 276° |
| 2026-02-18 11:44 | 38.93499 | 15.03608 | 30254 ft | 344 kts | 276° |
| 2026-02-18 11:44 | 38.93171 | 15.00573 | 29785 ft | 340 kts | 276° |
| 2026-02-18 11:44 | 38.92928 | 14.98335 | 29482 ft | 335 kts | 276° |
| 2026-02-18 11:44 | 38.92610 | 14.95420 | 29070 ft | 330 kts | 276° |
| 2026-02-18 11:45 | 38.92295 | 14.92528 | 28669 ft | 324 kts | 276° |
| 2026-02-18 11:45 | 38.91680 | 14.86881 | 27881 ft | 315 kts | 277° |
| 2026-02-18 11:45 | 38.91377 | 14.84113 | 27509 ft | 310 kts | 277° |
| 2026-02-18 11:46 | 38.91080 | 14.81382 | 27114 ft | 307 kts | 277° |
| 2026-02-18 11:46 | 38.90783 | 14.78676 | 26744 ft | 304 kts | 277° |
| 2026-02-18 11:46 | 38.90490 | 14.75967 | 26379 ft | 310 kts | 277° |
| 2026-02-18 11:46 | 38.90194 | 14.73163 | 25999 ft | 324 kts | 276° |
| 2026-02-18 11:47 | 38.89879 | 14.70286 | 25588 ft | 324 kts | 276° |
| 2026-02-18 11:47 | 38.89557 | 14.67440 | 25185 ft | 320 kts | 276° |
| 2026-02-18 11:47 | 38.89241 | 14.64666 | 24794 ft | 317 kts | 276° |
| 2026-02-18 11:47 | 38.88926 | 14.61886 | 24415 ft | 313 kts | 276° |
| 2026-02-18 11:48 | 38.88614 | 14.59130 | 24040 ft | 310 kts | 276° |
| 2026-02-18 11:48 | 38.88308 | 14.56408 | 23656 ft | 307 kts | 276° |
| 2026-02-18 11:48 | 38.88005 | 14.53710 | 23219 ft | 304 kts | 277° |
| 2026-02-18 11:48 | 38.87705 | 14.51053 | 22854 ft | 299 kts | 276° |
| 2026-02-18 11:49 | 38.87408 | 14.48428 | 22485 ft | 295 kts | 276° |
| 2026-02-18 11:49 | 38.86823 | 14.43246 | 21754 ft | 291 kts | 276° |
| 2026-02-18 11:49 | 38.86533 | 14.40677 | 21401 ft | 293 kts | 275° |
| 2026-02-18 11:50 | 38.86241 | 14.38042 | 21045 ft | 306 kts | 275° |
| 2026-02-18 11:50 | 38.85932 | 14.35295 | 20655 ft | 312 kts | 274° |
| 2026-02-18 11:50 | 38.85612 | 14.32545 | 20258 ft | 309 kts | 273° |
| 2026-02-18 11:50 | 38.85292 | 14.29832 | 19879 ft | 306 kts | 272° |
| 2026-02-18 11:51 | 38.84976 | 14.27140 | 19500 ft | 303 kts | 272° |
| 2026-02-18 11:51 | 38.84670 | 14.24512 | 19194 ft | 300 kts | 272° |
| 2026-02-18 11:51 | 38.84368 | 14.21905 | 19159 ft | 293 kts | 272° |
| 2026-02-18 11:51 | 38.84074 | 14.19349 | 19139 ft | 286 kts | 273° |
| 2026-02-18 11:52 | 38.83789 | 14.16878 | 19126 ft | 274 kts | 273° |
| 2026-02-18 11:52 | 38.83617 | 14.14528 | 19123 ft | 254 kts | 281° |
| 2026-02-18 11:52 | 38.83661 | 14.12340 | 19114 ft | 238 kts | 284° |
| 2026-02-18 11:52 | 38.83725 | 14.10280 | 19120 ft | 224 kts | 284° |
| 2026-02-18 11:53 | 38.83785 | 14.08336 | 19119 ft | 212 kts | 285° |
| 2026-02-18 11:53 | 38.83911 | 14.04571 | 19147 ft | 219 kts | 285° |
| 2026-02-18 11:53 | 38.83976 | 14.02584 | 19149 ft | 225 kts | 284° |
| 2026-02-18 11:54 | 38.84033 | 14.00585 | 19131 ft | 223 kts | 284° |
| 2026-02-18 11:54 | 38.84085 | 13.98600 | 19127 ft | 221 kts | 284° |
| 2026-02-18 11:54 | 38.84136 | 13.96642 | 19129 ft | 219 kts | 285° |
| 2026-02-18 11:54 | 38.84186 | 13.94703 | 19127 ft | 217 kts | 285° |
| 2026-02-18 11:55 | 38.84236 | 13.92771 | 19133 ft | 216 kts | 285° |
| 2026-02-18 11:55 | 38.84284 | 13.90851 | 19137 ft | 216 kts | 285° |
| 2026-02-18 11:55 | 38.84333 | 13.88927 | 19141 ft | 216 kts | 285° |
| 2026-02-18 11:55 | 38.84382 | 13.86993 | 19147 ft | 218 kts | 285° |
| 2026-02-18 11:56 | 38.84430 | 13.85045 | 19150 ft | 219 kts | 285° |
| 2026-02-18 11:56 | 38.84478 | 13.83082 | 19144 ft | 221 kts | 285° |
| 2026-02-18 11:56 | 38.84525 | 13.81132 | 19145 ft | 223 kts | 285° |
| 2026-02-18 11:56 | 38.84572 | 13.79141 | 19149 ft | 224 kts | 285° |
| 2026-02-18 11:57 | 38.84618 | 13.77134 | 19144 ft | 225 kts | 285° |
| 2026-02-18 11:57 | 38.84709 | 13.73117 | 19137 ft | 225 kts | 285° |
| 2026-02-18 11:57 | 38.84753 | 13.71114 | 19135 ft | 224 kts | 286° |
| 2026-02-18 11:58 | 38.84796 | 13.69122 | 19128 ft | 223 kts | 286° |
| 2026-02-18 11:58 | 38.84837 | 13.67137 | 19131 ft | 221 kts | 286° |
| 2026-02-18 11:58 | 38.84878 | 13.65164 | 19125 ft | 220 kts | 286° |
| 2026-02-18 11:58 | 38.84919 | 13.63212 | 19135 ft | 219 kts | 286° |
| 2026-02-18 11:59 | 38.84962 | 13.61264 | 19133 ft | 217 kts | 287° |
| 2026-02-18 11:59 | 38.85005 | 13.59329 | 19133 ft | 217 kts | 287° |
| 2026-02-18 11:59 | 38.85049 | 13.57427 | 19135 ft | 216 kts | 287° |
| 2026-02-18 11:59 | 38.85094 | 13.55502 | 19139 ft | 216 kts | 287° |
| 2026-02-18 12:00 | 38.85145 | 13.53570 | 19150 ft | 218 kts | 291° |
| 2026-02-18 12:00 | 38.85574 | 13.51719 | 19148 ft | 218 kts | 304° |
| 2026-02-18 12:00 | 38.86309 | 13.50017 | 19148 ft | 217 kts | 311° |
| 2026-02-18 12:00 | 38.87261 | 13.48532 | 19136 ft | 214 kts | 319° |
| 2026-02-18 12:01 | 38.88415 | 13.47341 | 19136 ft | 212 kts | 328° |
| 2026-02-18 12:01 | 38.91188 | 13.46011 | 19127 ft | 219 kts | 346° |
| 2026-02-18 12:01 | 38.92734 | 13.45982 | 19132 ft | 227 kts | 357° |
| 2026-02-18 12:02 | 38.94307 | 13.46458 | 19134 ft | 240 kts | 8° |
| 2026-02-18 12:02 | 38.95816 | 13.47488 | 19137 ft | 258 kts | 22° |
| 2026-02-18 12:02 | 38.97181 | 13.49162 | 19135 ft | 281 kts | 38° |
| 2026-02-18 12:02 | 38.98218 | 13.51359 | 19135 ft | 302 kts | 52° |
| 2026-02-18 12:03 | 38.98758 | 13.54096 | 19130 ft | 334 kts | 76° |
| 2026-02-18 12:03 | 38.98769 | 13.57115 | 19141 ft | 341 kts | 79° |
| 2026-02-18 12:03 | 38.98717 | 13.60181 | 19135 ft | 344 kts | 81° |
| 2026-02-18 12:03 | 38.98650 | 13.63259 | 19133 ft | 345 kts | 81° |
| 2026-02-18 12:04 | 38.98586 | 13.66350 | 19145 ft | 346 kts | 81° |
| 2026-02-18 12:04 | 38.98527 | 13.69455 | 19145 ft | 347 kts | 81° |
| 2026-02-18 12:04 | 38.98475 | 13.72567 | 19142 ft | 348 kts | 81° |
| 2026-02-18 12:04 | 38.98426 | 13.75672 | 19146 ft | 347 kts | 81° |
| 2026-02-18 12:05 | 38.98379 | 13.78733 | 19132 ft | 347 kts | 81° |
| 2026-02-18 12:05 | 38.98290 | 13.84921 | 19130 ft | 344 kts | 81° |
| 2026-02-18 12:05 | 38.98244 | 13.87984 | 19126 ft | 343 kts | 81° |
| 2026-02-18 12:06 | 38.98192 | 13.91051 | 19128 ft | 342 kts | 82° |
| 2026-02-18 12:06 | 38.98137 | 13.94101 | 19131 ft | 341 kts | 83° |
| 2026-02-18 12:06 | 38.97681 | 13.97145 | 19130 ft | 358 kts | 108° |
| 2026-02-18 12:06 | 38.96330 | 13.99883 | 19133 ft | 366 kts | 135° |
| 2026-02-18 12:07 | 38.94301 | 14.01819 | 19140 ft | 363 kts | 161° |
| 2026-02-18 12:07 | 38.91905 | 14.02657 | 19160 ft | 353 kts | 187° |
| 2026-02-18 12:07 | 38.89570 | 14.02351 | 19136 ft | 333 kts | 212° |
| 2026-02-18 12:07 | 38.87587 | 14.01102 | 19137 ft | 305 kts | 233° |
| 2026-02-18 12:08 | 38.85195 | 13.97141 | 19133 ft | 268 kts | 262° |
| 2026-02-18 12:08 | 38.84617 | 13.94944 | 19132 ft | 253 kts | 275° |
| 2026-02-18 12:08 | 38.84512 | 13.92757 | 19132 ft | 242 kts | 283° |
| 2026-02-18 12:09 | 38.84544 | 13.90605 | 19126 ft | 242 kts | 284° |
| 2026-02-18 12:09 | 38.84638 | 13.86290 | 19127 ft | 241 kts | 284° |
| 2026-02-18 12:09 | 38.84681 | 13.84141 | 19126 ft | 241 kts | 284° |
| 2026-02-18 12:10 | 38.84720 | 13.81993 | 19136 ft | 240 kts | 284° |
| 2026-02-18 12:10 | 38.84757 | 13.79851 | 19127 ft | 239 kts | 284° |
| 2026-02-18 12:10 | 38.84791 | 13.77744 | 19129 ft | 239 kts | 285° |
| 2026-02-18 12:10 | 38.84825 | 13.75624 | 19135 ft | 238 kts | 285° |
| 2026-02-18 12:11 | 38.84857 | 13.73500 | 19127 ft | 237 kts | 285° |
| 2026-02-18 12:11 | 38.84888 | 13.71386 | 19128 ft | 237 kts | 285° |
| 2026-02-18 12:11 | 38.84917 | 13.69280 | 19136 ft | 236 kts | 285° |
| 2026-02-18 12:11 | 38.84946 | 13.67176 | 19131 ft | 236 kts | 285° |
| 2026-02-18 12:12 | 38.84973 | 13.65075 | 19135 ft | 236 kts | 285° |
| 2026-02-18 12:12 | 38.85000 | 13.62971 | 19135 ft | 235 kts | 285° |
| 2026-02-18 12:12 | 38.85029 | 13.60874 | 19135 ft | 236 kts | 285° |
| 2026-02-18 12:12 | 38.85059 | 13.58772 | 19134 ft | 236 kts | 285° |
| 2026-02-18 12:13 | 38.85090 | 13.56664 | 19137 ft | 236 kts | 285° |
| 2026-02-18 12:13 | 38.85314 | 13.52527 | 19138 ft | 223 kts | 299° |
| 2026-02-18 12:13 | 38.85917 | 13.50732 | 19138 ft | 216 kts | 307° |
| 2026-02-18 12:14 | 38.86718 | 13.49117 | 19135 ft | 213 kts | 314° |
| 2026-02-18 12:14 | 38.87699 | 13.47706 | 19137 ft | 211 kts | 320° |
| 2026-02-18 12:14 | 38.88824 | 13.46536 | 19135 ft | 211 kts | 327° |
| 2026-02-18 12:14 | 38.90127 | 13.45621 | 19135 ft | 212 kts | 335° |
| 2026-02-18 12:15 | 38.91532 | 13.45066 | 19136 ft | 217 kts | 344° |
| 2026-02-18 12:15 | 38.93055 | 13.44901 | 19133 ft | 224 kts | 353° |
| 2026-02-18 12:15 | 38.94631 | 13.45177 | 19134 ft | 234 kts | 3° |
| 2026-02-18 12:15 | 38.96198 | 13.45934 | 19133 ft | 248 kts | 14° |
| 2026-02-18 12:16 | 38.97672 | 13.47212 | 19131 ft | 266 kts | 27° |
| 2026-02-18 12:16 | 38.98949 | 13.49053 | 19131 ft | 286 kts | 41° |
| 2026-02-18 12:16 | 38.99940 | 13.51363 | 19135 ft | 304 kts | 53° |
| 2026-02-18 12:16 | 39.00443 | 13.54126 | 19125 ft | 335 kts | 77° |
| 2026-02-18 12:17 | 39.00440 | 13.57144 | 19134 ft | 339 kts | 79° |
| 2026-02-18 12:17 | 39.00331 | 13.63243 | 19130 ft | 342 kts | 81° |
| 2026-02-18 12:17 | 39.00272 | 13.66270 | 19131 ft | 343 kts | 81° |
| 2026-02-18 12:18 | 39.00218 | 13.69343 | 19133 ft | 343 kts | 81° |
| 2026-02-18 12:18 | 39.00167 | 13.72411 | 19132 ft | 343 kts | 81° |
| 2026-02-18 12:18 | 39.00119 | 13.75480 | 19135 ft | 343 kts | 81° |
| 2026-02-18 12:18 | 39.00072 | 13.78548 | 19132 ft | 343 kts | 81° |
| 2026-02-18 12:19 | 39.00026 | 13.81613 | 19128 ft | 343 kts | 81° |
| 2026-02-18 12:19 | 38.99981 | 13.84674 | 19126 ft | 342 kts | 81° |
| 2026-02-18 12:19 | 38.99937 | 13.87738 | 19131 ft | 341 kts | 81° |
| 2026-02-18 12:19 | 38.99892 | 13.90784 | 19133 ft | 341 kts | 81° |
| 2026-02-18 12:20 | 38.99841 | 13.93835 | 19134 ft | 340 kts | 81° |
| 2026-02-18 12:20 | 38.99786 | 13.96883 | 19134 ft | 340 kts | 82° |
| 2026-02-18 12:20 | 38.99562 | 13.99929 | 19131 ft | 352 kts | 99° |
| 2026-02-18 12:20 | 38.98563 | 14.02817 | 19136 ft | 364 kts | 122° |
| 2026-02-18 12:21 | 38.96866 | 14.05231 | 19142 ft | 367 kts | 144° |
| 2026-02-18 12:21 | 38.92255 | 14.07390 | 19142 ft | 345 kts | 192° |
| 2026-02-18 12:21 | 38.89969 | 14.06939 | 19149 ft | 324 kts | 214° |
| 2026-02-18 12:22 | 38.88024 | 14.05684 | 19133 ft | 303 kts | 233° |
| 2026-02-18 12:22 | 38.86548 | 14.03901 | 19148 ft | 282 kts | 249° |
| 2026-02-18 12:22 | 38.85501 | 14.01840 | 19126 ft | 271 kts | 258° |
| 2026-02-18 12:22 | 38.84974 | 14.00407 | 19130 ft | 265 kts | 264° |
| 2026-02-18 12:23 | 38.84506 | 13.98195 | 19129 ft | 250 kts | 278° |
| 2026-02-18 12:23 | 38.84458 | 13.96007 | 19133 ft | 244 kts | 284° |
| 2026-02-18 12:23 | 38.84495 | 13.93830 | 19131 ft | 243 kts | 284° |
| 2026-02-18 12:23 | 38.84542 | 13.91664 | 19126 ft | 243 kts | 284° |
| 2026-02-18 12:24 | 38.84588 | 13.89505 | 19122 ft | 242 kts | 284° |
| 2026-02-18 12:24 | 38.84631 | 13.87352 | 19128 ft | 241 kts | 285° |
| 2026-02-18 12:24 | 38.84670 | 13.85211 | 19130 ft | 239 kts | 284° |
| 2026-02-18 12:24 | 38.84707 | 13.83082 | 19135 ft | 238 kts | 285° |
| 2026-02-18 12:25 | 38.84742 | 13.80968 | 19128 ft | 236 kts | 285° |
| 2026-02-18 12:25 | 38.84807 | 13.76800 | 19129 ft | 234 kts | 285° |
| 2026-02-18 12:25 | 38.84839 | 13.74709 | 19127 ft | 234 kts | 285° |
| 2026-02-18 12:26 | 38.84870 | 13.72627 | 19131 ft | 233 kts | 285° |
| 2026-02-18 12:26 | 38.84900 | 13.70546 | 19134 ft | 233 kts | 285° |
| 2026-02-18 12:26 | 38.84930 | 13.68457 | 19134 ft | 234 kts | 285° |
| 2026-02-18 12:26 | 38.84958 | 13.66367 | 19136 ft | 235 kts | 285° |
| 2026-02-18 12:27 | 38.84984 | 13.64273 | 19133 ft | 235 kts | 285° |
| 2026-02-18 12:27 | 38.85012 | 13.62197 | 19134 ft | 236 kts | 285° |
| 2026-02-18 12:27 | 38.85041 | 13.60092 | 19136 ft | 236 kts | 285° |
| 2026-02-18 12:27 | 38.85072 | 13.57982 | 19134 ft | 237 kts | 286° |
| 2026-02-18 12:28 | 38.85103 | 13.55868 | 19132 ft | 237 kts | 286° |
| 2026-02-18 12:28 | 38.85140 | 13.53752 | 19134 ft | 235 kts | 289° |
| 2026-02-18 12:28 | 38.85524 | 13.51815 | 19135 ft | 220 kts | 303° |
| 2026-02-18 12:28 | 38.86210 | 13.50081 | 19132 ft | 215 kts | 309° |
| 2026-02-18 12:29 | 38.87076 | 13.48540 | 19131 ft | 212 kts | 316° |
| 2026-02-18 12:29 | 38.89291 | 13.46131 | 19128 ft | 209 kts | 330° |
| 2026-02-18 12:29 | 38.90617 | 13.45345 | 19131 ft | 211 kts | 338° |
| 2026-02-18 12:30 | 38.92062 | 13.44918 | 19130 ft | 216 kts | 347° |
| 2026-02-18 12:30 | 38.93587 | 13.44893 | 19130 ft | 223 kts | 356° |
| 2026-02-18 12:30 | 38.95143 | 13.45303 | 19132 ft | 234 kts | 6° |
| 2026-02-18 12:30 | 38.96671 | 13.46189 | 19132 ft | 249 kts | 17° |
| 2026-02-18 12:31 | 38.98064 | 13.47687 | 19136 ft | 284 kts | 37° |
| 2026-02-18 12:31 | 38.99175 | 13.50010 | 19140 ft | 327 kts | 52° |
| 2026-02-18 12:31 | 38.99858 | 13.52886 | 19124 ft | 351 kts | 70° |
| 2026-02-18 12:31 | 38.99808 | 13.56079 | 19116 ft | 366 kts | 94° |
| 2026-02-18 12:32 | 38.98837 | 13.59117 | 19112 ft | 371 kts | 121° |
| 2026-02-18 12:32 | 38.97070 | 13.61461 | 19113 ft | 362 kts | 150° |
| 2026-02-18 12:32 | 38.94841 | 13.62725 | 19117 ft | 339 kts | 179° |
| 2026-02-18 12:32 | 38.92545 | 13.62959 | 19140 ft | 327 kts | 198° |
| 2026-02-18 12:33 | 38.90339 | 13.62399 | 19144 ft | 322 kts | 214° |
| 2026-02-18 12:33 | 38.86180 | 13.60361 | 19106 ft | 315 kts | 219° |
| 2026-02-18 12:33 | 38.84153 | 13.59306 | 18828 ft | 318 kts | 218° |
| 2026-02-18 12:34 | 38.82059 | 13.58216 | 18181 ft | 328 kts | 216° |
| 2026-02-18 12:34 | 38.79923 | 13.57137 | 17516 ft | 331 kts | 214° |
| 2026-02-18 12:34 | 38.77763 | 13.56066 | 16845 ft | 334 kts | 213° |
| 2026-02-18 12:34 | 38.75579 | 13.54991 | 15981 ft | 342 kts | 211° |
| 2026-02-18 12:35 | 38.73327 | 13.53892 | 15248 ft | 346 kts | 210° |
| 2026-02-18 12:35 | 38.71110 | 13.52824 | 15004 ft | 333 kts | 210° |
| 2026-02-18 12:35 | 38.69025 | 13.51816 | 14788 ft | 319 kts | 210° |
| 2026-02-18 12:35 | 38.66974 | 13.50810 | 14465 ft | 311 kts | 210° |
| 2026-02-18 12:36 | 38.64958 | 13.49818 | 14177 ft | 302 kts | 210° |
| 2026-02-18 12:36 | 38.63069 | 13.48828 | 13874 ft | 292 kts | 213° |
| 2026-02-18 12:36 | 38.61228 | 13.47765 | 13446 ft | 287 kts | 214° |
| 2026-02-18 12:36 | 38.59654 | 13.46394 | 13189 ft | 260 kts | 240° |
| 2026-02-18 12:37 | 38.58807 | 13.44509 | 12888 ft | 234 kts | 263° |
| 2026-02-18 12:37 | 38.58717 | 13.40613 | 12290 ft | 214 kts | 294° |
| 2026-02-18 12:37 | 38.59260 | 13.38856 | 11995 ft | 212 kts | 299° |
| 2026-02-18 12:38 | 38.59856 | 13.37143 | 11703 ft | 212 kts | 294° |
| 2026-02-18 12:38 | 38.59960 | 13.35210 | 11368 ft | 224 kts | 267° |
| 2026-02-18 12:38 | 38.59339 | 13.33366 | 11094 ft | 237 kts | 244° |
| 2026-02-18 12:38 | 38.58063 | 13.31933 | 10784 ft | 254 kts | 219° |
| 2026-02-18 12:39 | 38.56470 | 13.30937 | 10539 ft | 256 kts | 214° |
| 2026-02-18 12:39 | 38.54836 | 13.30025 | 10255 ft | 256 kts | 213° |
| 2026-02-18 12:39 | 38.53199 | 13.29121 | 9976 ft | 256 kts | 213° |
| 2026-02-18 12:39 | 38.51560 | 13.28230 | 9694 ft | 255 kts | 213° |
| 2026-02-18 12:40 | 38.49942 | 13.27340 | 9324 ft | 251 kts | 214° |
| 2026-02-18 12:40 | 38.48336 | 13.26445 | 8887 ft | 252 kts | 214° |
| 2026-02-18 12:40 | 38.46735 | 13.25548 | 8484 ft | 250 kts | 214° |
| 2026-02-18 12:40 | 38.45147 | 13.24659 | 8106 ft | 250 kts | 214° |
| 2026-02-18 12:41 | 38.43559 | 13.23751 | 7828 ft | 249 kts | 214° |
| 2026-02-18 12:41 | 38.40427 | 13.21950 | 7325 ft | 246 kts | 214° |
| 2026-02-18 12:41 | 38.38865 | 13.21049 | 7074 ft | 246 kts | 215° |
| 2026-02-18 12:42 | 38.37311 | 13.20167 | 6829 ft | 245 kts | 214° |
| 2026-02-18 12:42 | 38.35757 | 13.19292 | 6582 ft | 244 kts | 214° |
| 2026-02-18 12:42 | 38.34205 | 13.18416 | 6316 ft | 243 kts | 214° |
| 2026-02-18 12:42 | 38.32664 | 13.17543 | 6047 ft | 242 kts | 214° |
| 2026-02-18 12:43 | 38.31139 | 13.16689 | 5783 ft | 242 kts | 214° |
| 2026-02-18 12:43 | 38.29598 | 13.15805 | 5365 ft | 247 kts | 217° |
| 2026-02-18 12:43 | 38.27982 | 13.14825 | 4616 ft | 266 kts | 213° |
| 2026-02-18 12:43 | 38.26246 | 13.13920 | 4088 ft | 271 kts | 209° |
| 2026-02-18 12:44 | 38.24412 | 13.13327 | 3742 ft | 273 kts | 193° |
| 2026-02-18 12:44 | 38.22529 | 13.13500 | 3529 ft | 271 kts | 166° |
| 2026-02-18 12:44 | 38.20916 | 13.14701 | 3107 ft | 272 kts | 131° |
| 2026-02-18 12:44 | 38.20364 | 13.16762 | 3009 ft | 230 kts | 72° |
| 2026-02-18 12:45 | 38.20943 | 13.18443 | 2791 ft | 197 kts | 37° |
| 2026-02-18 12:45 | 38.22971 | 13.18804 | 2499 ft | 135 kts | 328° |
| 2026-02-18 12:45 | 38.23585 | 13.17914 | 2309 ft | 139 kts | 304° |
| 2026-02-18 12:46 | 38.23990 | 13.16820 | 2254 ft | 134 kts | 302° |
| 2026-02-18 12:46 | 38.24372 | 13.15765 | 2151 ft | 131 kts | 305° |
| 2026-02-18 12:46 | 38.24799 | 13.14723 | 1934 ft | 133 kts | 303° |
| 2026-02-18 12:46 | 38.24897 | 13.13591 | 1791 ft | 139 kts | 263° |
| 2026-02-18 12:47 | 38.24153 | 13.12731 | 1704 ft | 157 kts | 216° |
| 2026-02-18 12:47 | 38.23104 | 13.12408 | 1578 ft | 152 kts | 210° |
| 2026-02-18 12:47 | 38.22125 | 13.11989 | 1325 ft | 147 kts | 222° |
| 2026-02-18 12:47 | 38.21214 | 13.11432 | 1037 ft | 144 kts | 228° |
| 2026-02-18 12:48 | 38.20370 | 13.10758 | 822 ft | 143 kts | 225° |
| 2026-02-18 12:48 | 38.19484 | 13.10191 | 405 ft | 140 kts | 214° |
| 2026-02-18 12:48 | 38.18630 | 13.09720 | 161 ft | 126 kts | 217° |
| 2026-02-18 12:48 | 38.17880 | 13.09270 | 68 ft | 107 kts | 208° |
| 2026-02-18 12:49 | 38.17331 | 13.08965 | 69 ft | 65 kts | 204° |
| 2026-02-18 12:49 | 38.17047 | 13.08728 | 65 ft | 10 kts | 303° |
| 2026-02-18 12:49 | 38.17104 | 13.08680 | 60 ft | 10 kts | 330° |
| 2026-02-18 12:50 | 38.17163 | 13.08630 | 62 ft | 11 kts | 327° |
| 2026-02-18 12:50 | 38.17248 | 13.08633 | 62 ft | 15 kts | 17° |
| 2026-02-18 12:50 | 38.17358 | 13.08678 | 65 ft | 18 kts | 18° |
| 2026-02-18 12:50 | 38.17486 | 13.08731 | 62 ft | 22 kts | 18° |
| 2026-02-18 12:51 | 38.17631 | 13.08850 | 66 ft | 27 kts | 36° |
| 2026-02-18 12:51 | 38.17766 | 13.09036 | 63 ft | 30 kts | 65° |
| 2026-02-18 12:51 | 38.17848 | 13.09276 | 70 ft | 29 kts | 68° |
| 2026-02-18 12:51 | 38.17926 | 13.09509 | 63 ft | 29 kts | 66° |
| 2026-02-18 12:52 | 38.18002 | 13.09737 | 64 ft | 27 kts | 66° |
| 2026-02-18 12:52 | 38.18081 | 13.09866 | 64 ft | 13 kts | 348° |
| 2026-02-18 12:52 | 38.18147 | 13.09936 | 59 ft | 17 kts | 66° |
| 2026-02-18 12:52 | 38.18206 | 13.10110 | 61 ft | 24 kts | 66° |
| 2026-02-18 12:53 | 38.18270 | 13.10298 | 60 ft | 23 kts | 66° |
| 2026-02-18 12:53 | 38.18440 | 13.10534 | 58 ft | 15 kts | 47° |
| 2026-02-18 12:53 | 38.18475 | 13.10596 | 57 ft | 5 kts | 44° |
| 2026-02-18 12:54 | 38.18504 | 13.10622 | 63 ft | 5 kts | 17° |
| 2026-02-18 12:54 | 38.18536 | 13.10614 | 60 ft | 4 kts | 338° |
| 2026-02-18 12:54 | 38.18548 | 13.10608 | 63 ft | 0 kts | 338° |